Time;durP1;ratioP1;P1;durP2;ratioP2;P2;SDS_P1;SDS_P2;PMS_P1;PMS_P2;Temp;Humidity;BMP_temperature;BMP_pressure;BME280_temperature;BME280_humidity;BME280_pressure;Samples;Min_cycle;Max_cycle;Signal;HPM_P1;HPM_P2
2024/04/19 00:00:02;;;;;;;12.45;2.85;;;10.90;99.90;;;;;;5433493;26;19988;-49
2024/04/19 00:02:27;;;;;;;10.68;2.53;;;10.90;99.90;;;;;;5433759;26;20166;-49
2024/04/19 00:04:53;;;;;;;9.27;2.63;;;10.90;99.90;;;;;;5432537;26;19995;-46
2024/04/19 00:07:19;;;;;;;8.90;2.38;;;10.90;99.90;;;;;;5433687;26;20015;-48
2024/04/19 00:09:44;;;;;;;12.80;2.75;;;10.90;99.90;;;;;;5433671;26;20053;-47
2024/04/19 00:12:10;;;;;;;12.35;2.78;;;10.90;99.90;;;;;;5432517;26;19998;-49
2024/04/19 00:14:36;;;;;;;11.88;2.40;;;10.90;99.90;;;;;;5433354;26;19991;-48
2024/04/19 00:17:01;;;;;;;9.57;3.15;;;10.90;99.90;;;;;;5433333;26;19995;-49
2024/04/19 00:19:27;;;;;;;14.32;2.65;;;10.90;99.90;;;;;;5433305;26;20047;-49
2024/04/19 00:21:53;;;;;;;13.00;2.65;;;10.90;99.90;;;;;;5433077;26;19999;-48
2024/04/19 00:24:18;;;;;;;12.30;3.00;;;10.90;99.90;;;;;;5433136;26;19987;-45
2024/04/19 00:26:44;;;;;;;9.60;2.85;;;10.90;99.90;;;;;;5433071;26;19988;-47
2024/04/19 00:29:09;;;;;;;13.27;2.60;;;11.00;99.90;;;;;;5433160;26;19995;-49
2024/04/19 00:31:35;;;;;;;14.93;3.13;;;10.90;99.90;;;;;;5433353;26;20101;-48
2024/04/19 00:34:01;;;;;;;9.85;2.55;;;10.90;99.90;;;;;;5433141;26;19995;-48
2024/04/19 00:36:26;;;;;;;8.75;2.42;;;10.90;99.90;;;;;;5433132;26;20036;-49
2024/04/19 00:38:54;;;;;;;9.77;2.30;;;10.90;99.90;;;;;;5433055;26;20042;-48
2024/04/19 00:41:20;;;;;;;9.30;2.20;;;10.90;99.90;;;;;;5433132;26;19991;-49
2024/04/19 00:43:45;;;;;;;11.15;2.35;;;10.90;99.90;;;;;;5432219;26;20200;-48
2024/04/19 00:46:11;;;;;;;13.65;2.83;;;10.90;99.90;;;;;;5432839;26;19995;-49
2024/04/19 00:48:37;;;;;;;12.48;2.83;;;10.90;99.90;;;;;;5432099;26;19987;-49
2024/04/19 00:51:03;;;;;;;13.43;2.40;;;10.90;99.90;;;;;;5432885;26;20082;-49
2024/04/19 00:53:33;;;;;;;15.27;2.97;;;10.90;99.90;;;;;;5432096;26;19991;-44
2024/04/19 00:56:02;;;;;;;10.27;2.53;;;10.90;99.90;;;;;;5432771;26;19991;-45
2024/04/19 00:58:29;;;;;;;8.20;2.45;;;10.90;99.90;;;;;;5432853;26;19988;-47
2024/04/19 01:00:55;;;;;;;7.03;2.20;;;10.90;99.90;;;;;;5431912;26;19987;-49
2024/04/19 01:03:21;;;;;;;9.20;2.17;;;10.90;99.90;;;;;;5431855;26;19991;-49
2024/04/19 01:05:47;;;;;;;9.82;2.20;;;10.90;99.90;;;;;;5432553;26;20082;-44
2024/04/19 01:08:12;;;;;;;10.10;2.45;;;10.90;99.90;;;;;;5432374;26;19998;-48
2024/04/19 01:10:38;;;;;;;8.77;2.05;;;10.90;99.90;;;;;;5432450;26;19998;-49
2024/04/19 01:13:04;;;;;;;11.52;2.50;;;10.90;99.90;;;;;;5432580;26;19987;-51
2024/04/19 01:15:29;;;;;;;8.68;2.10;;;10.90;99.90;;;;;;5432429;26;20161;-48
2024/04/19 01:17:55;;;;;;;14.40;2.50;;;10.90;99.90;;;;;;5432510;26;20003;-48
2024/04/19 01:20:21;;;;;;;7.45;2.28;;;10.90;99.90;;;;;;5432551;26;20042;-46
2024/04/19 01:22:46;;;;;;;8.48;1.77;;;10.90;99.90;;;;;;5432504;26;20012;-49
2024/04/19 01:25:34;;;;;;;11.60;2.25;;;10.80;99.90;;;;;;5431637;26;19995;-48
2024/04/19 01:28:00;;;;;;;12.25;2.35;;;10.80;99.90;;;;;;5432352;26;20162;-49
2024/04/19 01:30:26;;;;;;;8.52;2.38;;;10.80;99.90;;;;;;5432449;26;19994;-47
2024/04/19 01:32:51;;;;;;;10.05;2.03;;;10.80;99.90;;;;;;5432027;26;19988;-47
2024/04/19 01:35:17;;;;;;;4.20;1.60;;;10.80;99.90;;;;;;5432769;26;20042;-50
2024/04/19 01:37:43;;;;;;;11.45;1.90;;;10.80;99.90;;;;;;5435777;26;19994;-48
2024/04/19 01:40:09;;;;;;;13.27;2.40;;;10.80;99.90;;;;;;5435360;26;20137;-49
2024/04/19 01:42:34;;;;;;;11.25;2.28;;;10.80;99.90;;;;;;5435602;26;19988;-45
2024/04/19 01:45:00;;;;;;;10.70;2.20;;;10.80;99.90;;;;;;5435503;26;19987;-48
2024/04/19 01:47:25;;;;;;;13.57;2.75;;;10.80;99.90;;;;;;5435688;26;19988;-49
2024/04/19 01:49:51;;;;;;;8.18;2.22;;;10.80;99.90;;;;;;5435652;26;20038;-47
2024/04/19 01:52:17;;;;;;;9.25;2.22;;;10.80;99.90;;;;;;5435180;26;19999;-47
2024/04/19 01:54:42;;;;;;;11.18;2.67;;;10.70;99.90;;;;;;5435324;26;19995;-48
2024/04/19 01:57:08;;;;;;;13.25;2.72;;;10.70;99.90;;;;;;5435387;26;20041;-48
2024/04/19 01:59:34;;;;;;;8.70;2.30;;;10.70;99.90;;;;;;5435588;26;19994;-49
2024/04/19 02:02:00;;;;;;;9.77;2.53;;;10.60;99.90;;;;;;5434327;26;20158;-49
2024/04/19 02:04:25;;;;;;;9.32;2.08;;;10.60;99.90;;;;;;5435160;26;19987;-49
2024/04/19 02:06:51;;;;;;;10.75;2.85;;;10.50;99.90;;;;;;5435258;26;20164;-48
2024/04/19 02:09:16;;;;;;;13.60;2.97;;;10.40;99.90;;;;;;5435333;26;19987;-45
2024/04/19 02:11:42;;;;;;;7.28;2.45;;;10.40;99.90;;;;;;5435072;26;20033;-47
2024/04/19 02:14:08;;;;;;;8.27;2.25;;;10.30;99.90;;;;;;5434903;26;19987;-48
2024/04/19 02:16:33;;;;;;;12.88;3.10;;;10.30;99.90;;;;;;5434816;26;20162;-48
2024/04/19 02:18:59;;;;;;;9.60;2.83;;;10.30;99.90;;;;;;5435087;26;20002;-49
2024/04/19 02:21:27;;;;;;;10.32;2.75;;;10.30;99.90;;;;;;5434276;26;19991;-48
2024/04/19 02:23:53;;;;;;;8.98;2.35;;;10.30;99.90;;;;;;5435142;26;19988;-47
2024/04/19 02:26:19;;;;;;;10.90;2.50;;;10.20;99.90;;;;;;5434207;26;19995;-47
2024/04/19 02:31:29;;;;;;;10.18;2.53;;;10.20;99.90;;;;;;5435488;26;19998;-46
2024/04/19 02:33:54;;;;;;;7.75;2.60;;;10.20;99.90;;;;;;5434092;26;19991;-48
2024/04/19 02:36:20;;;;;;;10.75;2.38;;;10.20;99.90;;;;;;5434827;26;19991;-48
2024/04/19 02:38:45;;;;;;;7.07;2.33;;;10.20;99.90;;;;;;5433821;26;19998;-49
2024/04/19 02:41:11;;;;;;;9.15;2.10;;;10.20;99.90;;;;;;5434894;26;20024;-47
2024/04/19 02:43:37;;;;;;;13.88;2.33;;;10.20;99.90;;;;;;5434834;26;20003;-48
2024/04/19 02:46:03;;;;;;;7.75;2.25;;;10.20;99.90;;;;;;5434475;26;19987;-45
2024/04/19 02:48:29;;;;;;;9.43;2.67;;;10.30;99.90;;;;;;5433205;26;20096;-46
2024/04/19 02:50:54;;;;;;;12.60;2.42;;;10.30;99.90;;;;;;5434468;26;20037;-45
2024/04/19 02:53:20;;;;;;;10.68;2.10;;;10.30;99.90;;;;;;5434774;26;19988;-46
2024/04/19 02:55:46;;;;;;;6.88;2.10;;;10.40;99.90;;;;;;5434408;26;20157;-45
2024/04/19 02:58:11;;;;;;;5.28;2.10;;;10.30;99.90;;;;;;5434274;26;19987;-46
2024/04/19 03:00:37;;;;;;;6.97;2.05;;;10.30;99.90;;;;;;5434500;26;20057;-48
2024/04/19 03:03:02;;;;;;;7.50;2.10;;;10.30;99.90;;;;;;5434633;26;19995;-46
2024/04/19 03:05:28;;;;;;;7.45;2.08;;;10.30;99.90;;;;;;5434385;26;19988;-48
2024/04/19 03:07:54;;;;;;;9.55;1.83;;;10.30;99.90;;;;;;5434595;26;19988;-49
2024/04/19 03:10:19;;;;;;;11.27;2.20;;;10.30;99.90;;;;;;5434117;26;20038;-47
2024/04/19 03:12:45;;;;;;;9.20;2.78;;;10.40;99.90;;;;;;5434381;26;19996;-46
2024/04/19 03:15:10;;;;;;;8.82;2.50;;;10.40;99.90;;;;;;5434346;26;19987;-48
2024/04/19 03:17:36;;;;;;;10.43;2.20;;;10.50;99.90;;;;;;5434298;26;20042;-48
2024/04/19 03:20:02;;;;;;;10.93;2.50;;;10.50;99.90;;;;;;5434426;26;20003;-48
2024/04/19 03:22:28;;;;;;;9.07;2.15;;;10.60;99.90;;;;;;5434108;26;20011;-45
2024/04/19 03:24:53;;;;;;;10.73;2.58;;;10.60;99.90;;;;;;5434122;26;19987;-48
2024/04/19 03:27:19;;;;;;;10.45;2.42;;;10.70;99.90;;;;;;5434315;26;19988;-46
2024/04/19 03:30:03;;;;;;;6.28;1.80;;;10.70;99.90;;;;;;5433977;26;20037;-48
2024/04/19 03:32:29;;;;;;;8.63;1.80;;;10.70;99.90;;;;;;5433966;26;20170;-48
2024/04/19 03:34:54;;;;;;;7.88;2.03;;;10.80;99.90;;;;;;5434038;26;19988;-47
2024/04/19 03:37:20;;;;;;;10.57;2.30;;;10.80;99.90;;;;;;5434101;26;20038;-47
2024/04/19 03:39:45;;;;;;;7.30;1.73;;;10.80;99.90;;;;;;5434041;26;20003;-49
2024/04/19 03:42:12;;;;;;;9.52;2.00;;;10.80;99.90;;;;;;5433711;26;20173;-48
2024/04/19 03:47:22;;;;;;;6.25;1.88;;;10.90;99.90;;;;;;5434601;26;20083;-49
2024/04/19 03:49:48;;;;;;;6.70;2.10;;;10.90;99.90;;;;;;5434103;26;20004;-49
2024/04/19 03:52:13;;;;;;;6.28;2.00;;;10.90;99.90;;;;;;5433552;26;19995;-48
2024/04/19 03:54:39;;;;;;;8.13;1.85;;;10.90;99.90;;;;;;5433801;26;19994;-46
2024/04/19 03:57:04;;;;;;;4.32;1.67;;;10.90;99.90;;;;;;5433822;26;20038;-46
2024/04/19 03:59:30;;;;;;;5.88;1.52;;;10.90;99.90;;;;;;5433374;26;20042;-45
2024/04/19 04:01:56;;;;;;;9.15;2.72;;;10.90;99.90;;;;;;5433708;26;20208;-48
2024/04/19 04:04:21;;;;;;;9.45;2.00;;;10.90;99.90;;;;;;5433673;26;19991;-48
2024/04/19 04:06:47;;;;;;;8.18;1.90;;;10.90;99.90;;;;;;5433786;26;19991;-46
2024/04/19 04:09:13;;;;;;;7.93;2.40;;;10.90;99.90;;;;;;5433618;26;20019;-48
2024/04/19 04:11:38;;;;;;;6.75;2.20;;;10.90;99.90;;;;;;5433766;26;19998;-46
2024/04/19 04:14:04;;;;;;;6.72;2.10;;;10.90;99.90;;;;;;5433241;26;19992;-46
2024/04/19 04:16:29;;;;;;;8.30;1.92;;;10.80;99.90;;;;;;5433319;26;19991;-47
2024/04/19 04:18:55;;;;;;;7.82;2.10;;;10.80;99.90;;;;;;5433601;26;20003;-49
2024/04/19 04:21:21;;;;;;;6.15;2.22;;;10.80;99.90;;;;;;5433663;26;20038;-48
2024/04/19 04:23:46;;;;;;;8.27;2.40;;;10.80;99.90;;;;;;5433318;26;20047;-47
2024/04/19 04:26:12;;;;;;;6.78;1.95;;;10.90;99.90;;;;;;5433070;26;20015;-49
2024/04/19 04:28:38;;;;;;;6.80;2.00;;;10.90;99.90;;;;;;5433246;26;19994;-48
2024/04/19 04:31:04;;;;;;;5.53;1.90;;;10.80;99.90;;;;;;5433412;26;19988;-47
2024/04/19 04:33:29;;;;;;;6.07;1.95;;;10.80;99.90;;;;;;5433306;26;20002;-47
2024/04/19 04:35:55;;;;;;;5.47;1.80;;;10.80;99.90;;;;;;5433004;26;19999;-47
2024/04/19 04:38:21;;;;;;;6.40;2.00;;;10.90;99.90;;;;;;5433140;26;20019;-49
2024/04/19 04:40:46;;;;;;;6.78;1.95;;;10.90;99.90;;;;;;5433036;26;19988;-49
2024/04/19 04:43:16;;;;;;;4.28;1.92;;;10.90;99.90;;;;;;5433050;26;20206;-47
2024/04/19 04:45:42;;;;;;;10.53;2.80;;;10.90;99.90;;;;;;5433254;26;19998;-49
2024/04/19 04:48:07;;;;;;;6.82;2.67;;;10.90;99.90;;;;;;5432655;26;20272;-49
2024/04/19 04:50:33;;;;;;;4.90;2.40;;;10.90;99.90;;;;;;5432904;26;20157;-49
2024/04/19 04:53:01;;;;;;;9.07;2.35;;;10.90;99.90;;;;;;5432645;26;19998;-46
2024/04/19 04:55:30;;;;;;;6.30;2.20;;;10.90;99.90;;;;;;5432277;26;19988;-45
2024/04/19 04:57:56;;;;;;;6.63;1.98;;;10.90;99.90;;;;;;5432677;26;20233;-47
2024/04/19 05:00:21;;;;;;;4.25;2.10;;;10.90;99.90;;;;;;5432020;26;20083;-48
2024/04/19 05:02:47;;;;;;;6.78;2.80;;;10.90;99.90;;;;;;5432740;26;19992;-47
2024/04/19 05:05:13;;;;;;;6.03;1.92;;;10.90;99.90;;;;;;5432408;26;20112;-48
2024/04/19 05:07:39;;;;;;;4.32;1.85;;;10.90;99.90;;;;;;5432540;26;19991;-48
2024/04/19 05:10:05;;;;;;;10.73;2.15;;;10.90;99.90;;;;;;5432515;26;19991;-48
2024/04/19 05:12:30;;;;;;;8.00;2.00;;;10.90;99.90;;;;;;5435714;26;19987;-46
2024/04/19 05:14:56;;;;;;;8.55;2.35;;;10.90;99.90;;;;;;5435997;26;20037;-47
2024/04/19 05:17:22;;;;;;;5.55;1.90;;;10.90;99.90;;;;;;5435967;26;20038;-48
2024/04/19 05:19:47;;;;;;;4.10;1.52;;;10.90;99.90;;;;;;5436129;26;19987;-48
2024/04/19 05:22:13;;;;;;;7.35;1.85;;;10.90;99.90;;;;;;5435627;26;19987;-46
2024/04/19 05:24:39;;;;;;;7.13;1.85;;;10.90;99.90;;;;;;5434982;26;19988;-46
2024/04/19 05:27:04;;;;;;;6.13;1.75;;;10.90;99.90;;;;;;5435782;26;19991;-48
2024/04/19 05:29:30;;;;;;;6.85;1.70;;;10.90;99.90;;;;;;5434885;26;20066;-48
2024/04/19 05:31:56;;;;;;;6.97;1.92;;;10.90;99.90;;;;;;5435571;26;19999;-45
2024/04/19 05:34:21;;;;;;;7.00;1.60;;;11.00;99.90;;;;;;5435787;26;19995;-46
2024/04/19 05:36:47;;;;;;;5.65;1.85;;;11.00;99.90;;;;;;5435510;26;20152;-48
2024/04/19 05:39:13;;;;;;;7.05;1.75;;;11.00;99.90;;;;;;5449425;21;20002;-55
2024/04/19 05:41:39;;;;;;;4.50;1.63;;;11.00;99.90;;;;;;5434481;26;20008;-55
2024/04/19 05:44:05;;;;;;;5.70;1.58;;;11.00;99.90;;;;;;5434270;26;20078;-55
2024/04/19 05:46:31;;;;;;;6.30;1.80;;;11.00;99.90;;;;;;5435047;26;19987;-55
2024/04/19 05:48:57;;;;;;;3.00;1.50;;;11.00;99.90;;;;;;5435441;26;19991;-56
2024/04/19 05:51:22;;;;;;;3.60;2.15;;;11.10;99.90;;;;;;5435162;26;19983;-56
2024/04/19 05:53:48;;;;;;;3.60;1.50;;;11.10;99.90;;;;;;5435355;26;19984;-57
2024/04/19 05:56:13;;;;;;;5.63;1.60;;;11.10;99.90;;;;;;5434396;26;19998;-56
2024/04/19 05:58:39;;;;;;;6.88;2.85;;;11.10;99.90;;;;;;5433928;26;19990;-57
2024/04/19 06:01:05;;;;;;;4.65;1.70;;;11.20;99.90;;;;;;5435247;26;19984;-56
2024/04/19 06:03:31;;;;;;;3.67;1.38;;;11.10;99.90;;;;;;5435227;26;19987;-56
2024/04/19 06:05:57;;;;;;;6.43;1.65;;;11.10;99.90;;;;;;5434024;26;19979;-56
2024/04/19 06:08:23;;;;;;;4.90;1.52;;;11.20;99.90;;;;;;5435148;26;19990;-56
2024/04/19 06:10:48;;;;;;;6.18;1.63;;;11.20;99.90;;;;;;5435164;26;19984;-56
2024/04/19 06:13:14;;;;;;;2.85;1.35;;;11.20;99.90;;;;;;5435121;26;20033;-56
2024/04/19 06:15:40;;;;;;;5.30;1.50;;;11.20;99.90;;;;;;5434159;26;19979;-56
2024/04/19 06:18:06;;;;;;;3.75;1.30;;;11.20;99.90;;;;;;5434879;26;19999;-56
2024/04/19 06:20:32;;;;;;;3.45;1.10;;;11.20;99.90;;;;;;5433876;26;20011;-56
2024/04/19 06:22:57;;;;;;;5.35;2.20;;;11.20;99.90;;;;;;5433821;26;20012;-56
2024/04/19 06:25:23;;;;;;;3.38;1.23;;;11.20;99.90;;;;;;5433932;26;19987;-56
2024/04/19 06:27:48;;;;;;;4.30;1.30;;;11.20;99.90;;;;;;5434652;26;20013;-57
2024/04/19 06:30:15;;;;;;;6.30;1.75;;;11.30;99.90;;;;;;5433514;26;20061;-56
2024/04/19 06:32:40;;;;;;;7.55;1.60;;;11.20;99.90;;;;;;5434557;26;20007;-54
2024/04/19 06:35:08;;;;;;;6.30;2.60;;;11.30;99.90;;;;;;5434250;26;19991;-56
2024/04/19 06:37:34;;;;;;;5.22;1.80;;;11.20;99.90;;;;;;5434166;26;19998;-55
2024/04/19 06:39:59;;;;;;;8.05;2.13;;;11.30;99.90;;;;;;5434334;26;20003;-55
2024/04/19 06:42:25;;;;;;;7.40;1.70;;;11.30;99.90;;;;;;5434353;26;19995;-56
2024/04/19 06:44:50;;;;;;;4.38;1.30;;;11.30;99.90;;;;;;5434230;26;20041;-56
2024/04/19 06:47:16;;;;;;;5.13;1.48;;;11.30;99.90;;;;;;5434279;26;19987;-55
2024/04/19 06:49:42;;;;;;;8.38;2.05;;;11.30;99.90;;;;;;5434274;26;20008;-57
2024/04/19 06:52:08;;;;;;;5.57;1.63;;;11.30;99.90;;;;;;5433776;26;19994;-56
2024/04/19 06:54:34;;;;;;;6.00;1.63;;;11.30;99.90;;;;;;5434200;26;19988;-57
2024/04/19 06:57:01;;;;;;;6.10;1.60;;;11.30;99.90;;;;;;5434239;26;20082;-56
2024/04/19 06:59:27;;;;;;;11.25;3.45;;;11.30;99.90;;;;;;5433265;26;20010;-56
2024/04/19 07:01:52;;;;;;;5.47;1.48;;;11.30;99.90;;;;;;5433782;26;19984;-57
2024/04/19 07:04:18;;;;;;;5.70;1.52;;;11.30;99.90;;;;;;5433740;26;19998;-56
2024/04/19 07:06:43;;;;;;;6.38;1.67;;;11.30;99.90;;;;;;5433821;26;20153;-56
2024/04/19 07:09:11;;;;;;;5.38;1.45;;;11.30;99.90;;;;;;5434128;26;20164;-57
2024/04/19 07:11:37;;;;;;;4.00;1.42;;;11.20;99.90;;;;;;5434270;26;20081;-56
2024/04/19 07:14:03;;;;;;;7.15;1.60;;;11.30;99.90;;;;;;5433751;26;20186;-54
2024/04/19 07:16:28;;;;;;;5.18;1.38;;;11.30;99.90;;;;;;5433481;26;19990;-56
2024/04/19 07:18:54;;;;;;;7.82;1.50;;;11.30;99.90;;;;;;5433711;26;19984;-56
2024/04/19 07:21:19;;;;;;;5.68;1.30;;;11.20;99.90;;;;;;5432769;26;19984;-56
2024/04/19 07:23:45;;;;;;;7.55;1.42;;;11.20;99.90;;;;;;5432718;26;20075;-55
2024/04/19 07:26:11;;;;;;;57.22;26.60;;;11.20;99.90;;;;;;5432461;26;19984;-56
2024/04/19 07:28:36;;;;;;;2.83;1.38;;;11.20;99.90;;;;;;5433605;26;19994;-54
2024/04/19 07:31:02;;;;;;;3.53;1.30;;;11.20;99.90;;;;;;5433878;26;19988;-56
2024/04/19 07:33:28;;;;;;;6.60;1.80;;;11.20;99.90;;;;;;5432991;26;19995;-55
2024/04/19 07:35:53;;;;;;;4.75;1.70;;;11.20;99.90;;;;;;5433686;26;20003;-55
2024/04/19 07:38:19;;;;;;;4.10;1.50;;;11.20;99.90;;;;;;5433266;26;20045;-56
2024/04/19 07:40:45;;;;;;;11.77;5.45;;;11.20;99.90;;;;;;5433134;26;20077;-56
2024/04/19 07:43:10;;;;;;;7.10;1.85;;;11.20;99.90;;;;;;5432562;26;20172;-54
2024/04/19 07:45:36;;;;;;;6.05;1.52;;;11.20;99.90;;;;;;5433641;26;20041;-57
2024/04/19 07:48:02;;;;;;;6.13;1.92;;;11.20;99.90;;;;;;5433005;26;20049;-55
2024/04/19 07:50:28;;;;;;;10.93;2.58;;;11.30;99.90;;;;;;5432940;26;20004;-57
2024/04/19 07:52:54;;;;;;;6.85;1.70;;;11.30;99.90;;;;;;5433313;26;19999;-56
2024/04/19 07:55:19;;;;;;;6.95;2.20;;;11.30;99.90;;;;;;5433627;26;19994;-55
2024/04/19 07:57:48;;;;;;;4.93;1.42;;;11.30;99.90;;;;;;5432583;26;19987;-55
2024/04/19 08:00:17;;;;;;;6.93;1.80;;;11.30;99.90;;;;;;5432979;26;19992;-56
2024/04/19 08:02:46;;;;;;;8.73;1.97;;;11.30;99.90;;;;;;5432790;26;20035;-56
2024/04/19 08:05:12;;;;;;;10.02;2.83;;;11.30;99.90;;;;;;5433131;26;20217;-56
2024/04/19 08:07:38;;;;;;;8.43;1.55;;;11.40;99.90;;;;;;5433182;26;20096;-56
2024/04/19 08:10:04;;;;;;;7.68;3.08;;;11.40;99.90;;;;;;5431977;26;19995;-52
2024/04/19 08:12:29;;;;;;;4.32;1.30;;;11.40;99.90;;;;;;5432222;26;20170;-54
2024/04/19 08:14:55;;;;;;;3.58;1.10;;;11.40;99.90;;;;;;5432283;26;19992;-56
2024/04/19 08:17:21;;;;;;;10.77;2.97;;;11.40;99.90;;;;;;5432129;26;19998;-55
2024/04/19 08:19:47;;;;;;;4.20;1.23;;;11.40;99.90;;;;;;5432118;26;20007;-56
2024/04/19 08:22:12;;;;;;;15.25;7.07;;;11.40;99.90;;;;;;5432030;26;19991;-56
2024/04/19 08:24:38;;;;;;;8.60;1.67;;;11.40;99.90;;;;;;5432844;26;19992;-55
2024/04/19 08:27:04;;;;;;;5.45;1.70;;;11.50;99.90;;;;;;5432627;26;19991;-56
2024/04/19 08:29:32;;;;;;;3.42;1.10;;;11.40;99.90;;;;;;5431828;26;20029;-56
2024/04/19 08:31:58;;;;;;;5.50;1.27;;;11.40;99.90;;;;;;5432728;26;20173;-56
2024/04/19 08:34:23;;;;;;;3.13;1.15;;;11.40;99.90;;;;;;5432308;26;20015;-56
2024/04/19 08:36:49;;;;;;;4.40;1.10;;;11.50;99.90;;;;;;5431250;26;20049;-56
2024/04/19 08:39:15;;;;;;;5.70;1.50;;;11.50;99.90;;;;;;5432187;26;19991;-55
2024/04/19 08:41:40;;;;;;;2.45;0.90;;;11.50;99.90;;;;;;5431593;26;19999;-55
2024/04/19 08:44:06;;;;;;;3.63;1.20;;;11.20;99.90;;;;;;5431082;26;19992;-56
2024/04/19 08:46:32;;;;;;;4.65;1.70;;;10.90;99.90;;;;;;5429793;26;19998;-56
2024/04/19 08:49:08;;;;;;;3.60;1.00;;;10.80;99.90;;;;;;5431478;26;19988;-55
2024/04/19 08:51:35;;;;;;;1.83;1.00;;;10.80;99.90;;;;;;5401626;26;20161;-54
2024/04/19 08:54:01;;;;;;;3.65;1.00;;;10.80;99.90;;;;;;5431998;26;19992;-56
2024/04/19 08:56:27;;;;;;;5.45;1.23;;;10.80;99.90;;;;;;5432045;26;20016;-56
2024/04/19 08:58:53;;;;;;;4.68;1.17;;;10.70;99.90;;;;;;5431149;26;20154;-56
2024/04/19 09:01:19;;;;;;;6.60;1.27;;;10.70;99.90;;;;;;5432110;26;20053;-55
2024/04/19 09:03:45;;;;;;;5.25;1.30;;;10.70;99.90;;;;;;5431581;26;20050;-57
2024/04/19 09:06:13;;;;;;;2.45;1.23;;;10.80;99.90;;;;;;5431081;26;20098;-56
2024/04/19 09:08:38;;;;;;;2.35;0.88;;;11.00;99.90;;;;;;5430970;26;19999;-56
2024/04/19 09:11:15;;;;;;;2.83;0.80;;;11.20;99.90;;;;;;5431128;26;20007;-56
2024/04/19 09:13:42;;;;;;;3.03;2.65;;;11.30;99.90;;;;;;5431680;26;19991;-56
2024/04/19 09:16:08;;;;;;;3.40;0.82;;;11.30;99.90;;;;;;5430408;26;19995;-54
2024/04/19 09:18:34;;;;;;;2.70;1.17;;;11.40;99.90;;;;;;5430521;26;19992;-54
2024/04/19 09:21:00;;;;;;;5.53;1.00;;;11.50;99.90;;;;;;5431337;26;19995;-56
2024/04/19 09:23:25;;;;;;;3.33;1.27;;;11.60;99.90;;;;;;5430655;26;20020;-55
2024/04/19 09:25:54;;;;;;;7.18;1.88;;;11.70;99.90;;;;;;5431507;26;19988;-56
2024/04/19 09:28:21;;;;;;;2.28;0.90;;;12.00;99.90;;;;;;5430472;26;19992;-58
2024/04/19 09:30:46;;;;;;;3.92;1.30;;;12.00;99.90;;;;;;5430798;26;19990;-58
2024/04/19 09:33:17;;;;;;;4.30;1.10;;;12.10;99.90;;;;;;5430498;26;19988;-56
2024/04/19 09:35:43;;;;;;;4.75;1.55;;;12.30;99.90;;;;;;5430261;26;19995;-57
2024/04/19 09:38:09;;;;;;;5.97;2.00;;;12.40;99.90;;;;;;5431063;26;19991;-52
2024/04/19 09:40:35;;;;;;;5.68;1.95;;;12.50;99.90;;;;;;5430222;26;19995;-58
2024/04/19 09:43:06;;;;;;;5.38;1.90;;;12.60;99.90;;;;;;5430304;26;19987;-56
2024/04/19 09:45:34;;;;;;;5.75;1.83;;;12.70;99.90;;;;;;5431579;26;20007;-57
2024/04/19 09:48:01;;;;;;;4.57;1.27;;;12.60;99.90;;;;;;5429843;26;20165;-57
2024/04/19 09:50:29;;;;;;;4.15;1.10;;;12.60;99.90;;;;;;5431130;26;20149;-57
2024/04/19 09:52:59;;;;;;;4.07;0.90;;;12.60;99.90;;;;;;5431297;26;19999;-57
2024/04/19 09:55:30;;;;;;;6.43;2.95;;;12.50;99.90;;;;;;5430454;26;19988;-57
2024/04/19 09:57:55;;;;;;;4.65;1.20;;;12.50;99.90;;;;;;5432828;26;19991;-54
2024/04/19 10:00:23;;;;;;;5.25;1.40;;;12.50;99.90;;;;;;5404315;26;19999;-56
2024/04/19 10:02:49;;;;;;;6.00;1.38;;;12.50;99.90;;;;;;5433771;26;20046;-54
2024/04/19 10:05:15;;;;;;;6.65;2.25;;;12.70;99.90;;;;;;5433916;26;20044;-56
2024/04/19 10:07:40;;;;;;;5.68;1.40;;;13.00;99.90;;;;;;5434720;26;20096;-57
2024/04/19 10:10:06;;;;;;;4.85;1.45;;;12.70;99.90;;;;;;5434155;26;19992;-56
2024/04/19 10:12:32;;;;;;;9.13;1.80;;;12.70;99.90;;;;;;5434239;26;19995;-55
2024/04/19 10:14:58;;;;;;;4.25;1.55;;;12.70;99.90;;;;;;5433193;26;20029;-56
2024/04/19 10:17:24;;;;;;;8.82;6.05;;;12.80;99.90;;;;;;5433465;26;19998;-54
2024/04/19 10:19:50;;;;;;;9.27;1.77;;;13.10;99.90;;;;;;5433539;26;20022;-57
2024/04/19 10:22:22;;;;;;;5.40;1.63;;;13.40;99.90;;;;;;5434345;26;20023;-57
2024/04/19 10:25:01;;;;;;;6.82;1.38;;;13.20;99.90;;;;;;5433747;26;19992;-54
2024/04/19 10:27:28;;;;;;;19.70;3.63;;;13.00;99.90;;;;;;5434541;26;20136;-55
2024/04/19 10:29:54;;;;;;;6.43;1.90;;;12.80;99.90;;;;;;5434189;26;20018;-56
2024/04/19 10:32:20;;;;;;;10.95;2.15;;;12.70;99.90;;;;;;5434123;26;20161;-56
2024/04/19 10:34:45;;;;;;;9.10;2.55;;;12.70;99.90;;;;;;5403417;26;19988;-54
2024/04/19 10:37:12;;;;;;;16.02;2.65;;;12.70;99.90;;;;;;5433474;26;19991;-55
2024/04/19 10:39:37;;;;;;;9.48;1.85;;;12.80;99.90;;;;;;5433606;26;20059;-57
2024/04/19 10:42:03;;;;;;;6.00;1.52;;;13.10;99.90;;;;;;5433862;26;19987;-56
2024/04/19 10:44:31;;;;;;;12.45;2.30;;;13.70;99.90;;;;;;5433864;26;20181;-54
2024/04/19 10:46:57;;;;;;;18.30;3.13;;;14.10;99.90;;;;;;5433914;26;19991;-56
2024/04/19 10:49:23;;;;;;;12.68;3.20;;;14.70;99.90;;;;;;5434494;26;20160;-56
2024/04/19 10:51:50;;;;;;;14.10;2.22;;;15.50;99.90;;;;;;5432677;26;19991;-57
2024/04/19 10:54:16;;;;;;;24.15;2.88;;;17.20;99.90;;;;;;5432602;26;19988;-56
2024/04/19 10:56:41;;;;;;;14.60;2.80;;;18.20;99.90;;;;;;5433777;26;20064;-56
2024/04/19 10:59:07;;;;;;;8.57;1.70;;;18.90;99.90;;;;;;5433036;26;20007;-57
2024/04/19 11:01:33;;;;;;;8.00;1.52;;;18.60;99.90;;;;;;5433801;26;19991;-56
2024/04/19 11:03:59;;;;;;;7.32;1.55;;;18.60;99.90;;;;;;5432960;26;19994;-56
2024/04/19 11:06:25;;;;;;;9.63;2.15;;;18.10;99.90;;;;;;5433170;26;19987;-57
2024/04/19 11:08:51;;;;;;;4.07;1.52;;;17.90;99.90;;;;;;5432414;26;19988;-57
2024/04/19 11:11:16;;;;;;;6.25;1.20;;;17.90;99.90;;;;;;5434025;26;19988;-56
2024/04/19 11:13:45;;;;;;;5.18;2.00;;;17.70;99.90;;;;;;5433741;26;20052;-57
2024/04/19 11:16:11;;;;;;;5.88;1.73;;;17.10;99.90;;;;;;5433341;26;20191;-56
2024/04/19 11:18:36;;;;;;;7.15;1.90;;;17.70;99.90;;;;;;5433747;26;20016;-57
2024/04/19 11:21:02;;;;;;;7.40;1.90;;;19.10;99.90;;;;;;5403327;26;20011;-57
2024/04/19 11:23:28;;;;;;;7.80;2.10;;;20.20;99.90;;;;;;5433215;26;19992;-57
2024/04/19 11:25:57;;;;;;;6.72;1.90;;;20.10;99.90;;;;;;5432629;26;19994;-57
2024/04/19 11:28:23;;;;;;;6.30;1.60;;;19.90;99.90;;;;;;5434032;26;19991;-57
2024/04/19 11:30:48;;;;;;;6.85;1.70;;;19.40;99.90;;;;;;5433433;26;20045;-57
2024/04/19 11:33:14;;;;;;;5.60;2.10;;;19.60;99.90;;;;;;5433439;26;20188;-57
2024/04/19 11:35:43;;;;;;;6.95;1.65;;;18.90;99.90;;;;;;5432897;26;20157;-58
2024/04/19 11:38:16;;;;;;;5.80;2.05;;;18.60;99.90;;;;;;5432876;26;20020;-57
2024/04/19 11:40:42;;;;;;;6.38;1.90;;;18.60;99.90;;;;;;5433110;26;20007;-56
2024/04/19 11:43:08;;;;;;;8.40;2.30;;;19.40;99.90;;;;;;5432795;26;20228;-58
2024/04/19 11:45:34;;;;;;;8.38;2.17;;;20.60;99.90;;;;;;5433209;26;20038;-58
2024/04/19 11:47:59;;;;;;;12.55;2.38;;;21.30;99.90;;;;;;5432620;26;20011;-57
2024/04/19 11:50:25;;;;;;;8.27;1.88;;;20.20;99.90;;;;;;5433084;26;19991;-58
2024/04/19 11:52:51;;;;;;;6.43;2.10;;;19.30;99.90;;;;;;5432464;26;20065;-58
2024/04/19 11:55:18;;;;;;;6.60;1.73;;;18.90;99.90;;;;;;5433557;26;20007;-57
2024/04/19 11:57:44;;;;;;;6.50;2.20;;;18.70;99.90;;;;;;5433353;26;19991;-57
2024/04/19 12:00:10;;;;;;;6.97;2.05;;;18.70;99.90;;;;;;5432896;26;20161;-57
2024/04/19 12:02:35;;;;;;;9.07;2.55;;;19.20;99.90;;;;;;5432754;26;20173;-58
2024/04/19 12:05:01;;;;;;;6.97;2.17;;;19.80;99.90;;;;;;5432296;26;20000;-57
2024/04/19 12:07:27;;;;;;;6.65;1.80;;;19.90;99.90;;;;;;5432914;26;19998;-58
2024/04/19 12:09:53;;;;;;;6.53;2.00;;;20.20;99.90;;;;;;5432605;26;19998;-58
2024/04/19 12:12:20;;;;;;;6.75;1.50;;;20.60;99.90;;;;;;5431876;26;20049;-58
2024/04/19 12:14:48;;;;;;;6.30;2.83;;;21.20;99.90;;;;;;5432734;26;19998;-58
2024/04/19 12:17:14;;;;;;;5.60;1.90;;;21.10;99.90;;;;;;5433010;26;19991;-58
2024/04/19 12:19:40;;;;;;;6.75;1.75;;;20.60;99.90;;;;;;5432446;26;20008;-58
2024/04/19 12:22:05;;;;;;;6.10;1.92;;;20.50;99.90;;;;;;5431915;26;20059;-57
2024/04/19 12:24:34;;;;;;;6.32;1.75;;;20.60;99.90;;;;;;5431732;26;19987;-59
2024/04/19 12:27:09;;;;;;;5.68;1.77;;;21.00;99.90;;;;;;5432596;26;19991;-60
2024/04/19 12:29:34;;;;;;;8.43;2.22;;;20.80;99.90;;;;;;5432206;26;19987;-60
2024/04/19 12:32:00;;;;;;;5.07;1.80;;;20.70;99.90;;;;;;5431355;26;20046;-59
2024/04/19 12:34:26;;;;;;;6.53;2.00;;;20.90;99.90;;;;;;5432526;26;19992;-60
2024/04/19 12:36:53;;;;;;;5.53;1.70;;;21.30;99.90;;;;;;5432203;26;19991;-59
2024/04/19 12:39:19;;;;;;;8.40;2.42;;;21.70;99.90;;;;;;5432488;26;20053;-59
2024/04/19 12:41:45;;;;;;;6.65;1.80;;;21.50;99.90;;;;;;5432541;26;19992;-58
2024/04/19 12:44:10;;;;;;;8.68;2.03;;;21.30;99.90;;;;;;5431912;26;20092;-59